createdAt,value
2022-09-30T00:00:41.000Z,93
2022-09-30T00:02:08.000Z,93
2022-09-30T00:04:14.000Z,93
2022-09-30T00:05:40.000Z,93
2022-09-30T00:07:46.000Z,94
2022-09-30T00:10:37.000Z,95
2022-09-30T00:12:04.000Z,95
2022-09-30T00:14:10.000Z,94
2022-09-30T00:15:37.000Z,94
2022-09-30T00:17:43.000Z,94
2022-09-30T00:19:09.000Z,94
2022-09-30T00:21:15.000Z,94
2022-09-30T00:22:42.000Z,94
2022-09-30T00:24:48.000Z,94
2022-09-30T00:26:14.000Z,94
2022-09-30T00:28:20.000Z,94
2022-09-30T00:29:47.000Z,94
2022-09-30T00:31:53.000Z,94
2022-09-30T00:33:20.000Z,94
2022-09-30T00:35:26.000Z,94
2022-09-30T00:36:52.000Z,94
2022-09-30T00:38:58.000Z,95
2022-09-30T00:40:25.000Z,95
2022-09-30T00:42:31.000Z,95
2022-09-30T00:43:58.000Z,95
2022-09-30T00:46:04.000Z,94
2022-09-30T00:48:55.000Z,93
2022-09-30T00:50:22.000Z,93
2022-09-30T00:52:28.000Z,92
2022-09-30T00:53:54.000Z,92
2022-09-30T00:56:00.000Z,92
2022-09-30T00:57:27.000Z,92
2022-09-30T00:59:33.000Z,92
2022-09-30T01:00:59.000Z,91
2022-09-30T01:03:06.000Z,92
2022-09-30T01:04:32.000Z,92
2022-09-30T01:06:38.000Z,92
2022-09-30T01:08:05.000Z,92
2022-09-30T01:10:11.000Z,92
2022-09-30T01:11:37.000Z,93
2022-09-30T01:13:43.000Z,93
2022-09-30T01:15:10.000Z,92
2022-09-30T01:17:16.000Z,92
2022-09-30T01:18:42.000Z,92
2022-09-30T01:20:49.000Z,93
2022-09-30T01:22:15.000Z,93
2022-09-30T01:24:21.000Z,94
2022-09-30T01:27:12.000Z,94
2022-09-30T01:28:38.000Z,93
2022-09-30T01:30:45.000Z,94
2022-09-30T01:32:11.000Z,94
2022-09-30T01:34:17.000Z,94
2022-09-30T01:35:44.000Z,94
2022-09-30T01:37:50.000Z,94
2022-09-30T01:39:16.000Z,93
2022-09-30T01:41:22.000Z,93
2022-09-30T01:42:49.000Z,93
2022-09-30T01:44:55.000Z,93
2022-09-30T01:46:21.000Z,94
2022-09-30T01:48:28.000Z,94
2022-09-30T01:49:54.000Z,94
2022-09-30T01:52:00.000Z,94
2022-09-30T01:53:27.000Z,94
2022-09-30T01:55:33.000Z,95
2022-09-30T01:56:59.000Z,95
2022-09-30T01:59:05.000Z,95
2022-09-30T02:00:32.000Z,95
2022-09-30T02:02:38.000Z,95
2022-09-30T02:05:29.000Z,95
2022-09-30T02:06:56.000Z,94
2022-09-30T02:09:02.000Z,94
2022-09-30T02:10:28.000Z,94
2022-09-30T02:12:35.000Z,95
2022-09-30T02:14:01.000Z,95
2022-09-30T02:16:07.000Z,95
2022-09-30T02:17:34.000Z,95
2022-09-30T02:19:40.000Z,95
2022-09-30T02:21:06.000Z,96
2022-09-30T02:23:12.000Z,96
2022-09-30T02:24:39.000Z,96
2022-09-30T02:26:45.000Z,96
2022-09-30T02:28:11.000Z,95
2022-09-30T02:30:18.000Z,95
2022-09-30T02:31:44.000Z,95
2022-09-30T02:33:50.000Z,95
2022-09-30T02:35:17.000Z,95
2022-09-30T02:37:24.000Z,95
2022-09-30T02:38:50.000Z,95
2022-09-30T02:40:56.000Z,95
2022-09-30T02:43:47.000Z,95
2022-09-30T02:45:14.000Z,96
2022-09-30T02:47:20.000Z,96
2022-09-30T02:48:47.000Z,96
2022-09-30T02:50:53.000Z,96
2022-09-30T02:52:19.000Z,96
2022-09-30T02:54:25.000Z,96
2022-09-30T02:55:52.000Z,96
2022-09-30T02:57:58.000Z,96
2022-09-30T02:59:24.000Z,96
2022-09-30T03:01:31.000Z,96
2022-09-30T03:02:57.000Z,96
2022-09-30T03:05:03.000Z,96
2022-09-30T03:06:30.000Z,96
2022-09-30T03:08:36.000Z,95
2022-09-30T03:10:02.000Z,95
2022-09-30T03:12:08.000Z,94
2022-09-30T03:13:35.000Z,94
2022-09-30T03:15:41.000Z,94
2022-09-30T03:17:07.000Z,95
2022-09-30T03:19:14.000Z,95
2022-09-30T03:22:04.000Z,95
2022-09-30T03:23:31.000Z,95
2022-09-30T03:25:37.000Z,95
2022-09-30T03:27:04.000Z,95
2022-09-30T03:29:10.000Z,95
2022-09-30T03:30:36.000Z,95
2022-09-30T03:32:42.000Z,95
2022-09-30T03:34:09.000Z,94
2022-09-30T03:36:15.000Z,94
2022-09-30T03:37:42.000Z,94
2022-09-30T03:39:48.000Z,95
2022-09-30T03:41:14.000Z,95
2022-09-30T03:43:20.000Z,94
2022-09-30T03:44:47.000Z,94
2022-09-30T03:46:53.000Z,94
2022-09-30T03:48:20.000Z,94
2022-09-30T03:50:26.000Z,95
2022-09-30T03:51:52.000Z,95
2022-09-30T03:53:58.000Z,95
2022-09-30T03:55:25.000Z,94
2022-09-30T03:57:31.000Z,94
2022-09-30T04:00:22.000Z,94
2022-09-30T04:01:49.000Z,94
2022-09-30T04:03:55.000Z,95
2022-09-30T04:05:22.000Z,95
2022-09-30T04:07:28.000Z,95
2022-09-30T04:08:54.000Z,95
2022-09-30T04:11:00.000Z,95
2022-09-30T04:12:27.000Z,95
2022-09-30T04:14:33.000Z,95
2022-09-30T04:15:59.000Z,95
2022-09-30T04:18:06.000Z,94
2022-09-30T04:19:32.000Z,94
2022-09-30T04:21:38.000Z,94
2022-09-30T04:23:05.000Z,94
2022-09-30T04:25:11.000Z,94
2022-09-30T04:26:37.000Z,94
2022-09-30T04:28:43.000Z,94
2022-09-30T04:30:10.000Z,94
2022-09-30T04:32:16.000Z,94
2022-09-30T04:33:43.000Z,94
2022-09-30T04:35:49.000Z,94
2022-09-30T04:38:40.000Z,95
2022-09-30T04:40:06.000Z,95
2022-09-30T04:42:13.000Z,95
2022-09-30T04:43:39.000Z,95
2022-09-30T04:45:45.000Z,95
2022-09-30T04:47:12.000Z,94
2022-09-30T04:49:18.000Z,94
2022-09-30T04:50:44.000Z,94
2022-09-30T04:52:51.000Z,94
2022-09-30T04:54:17.000Z,94
2022-09-30T04:56:23.000Z,94
2022-09-30T04:57:50.000Z,94
2022-09-30T04:59:56.000Z,94
2022-09-30T05:01:22.000Z,94
2022-09-30T05:03:29.000Z,94
2022-09-30T05:04:55.000Z,93
2022-09-30T05:07:01.000Z,93
2022-09-30T05:08:28.000Z,93
2022-09-30T05:10:34.000Z,94
2022-09-30T05:12:01.000Z,94
2022-09-30T05:14:07.000Z,93
2022-09-30T05:16:58.000Z,93
2022-09-30T05:18:24.000Z,93
2022-09-30T05:20:30.000Z,93
2022-09-30T05:21:57.000Z,93
2022-09-30T05:24:03.000Z,92
2022-09-30T05:25:29.000Z,92
2022-09-30T05:27:36.000Z,93
2022-09-30T05:29:02.000Z,94
2022-09-30T05:31:08.000Z,94
2022-09-30T05:32:35.000Z,94
2022-09-30T05:34:41.000Z,94
2022-09-30T05:36:08.000Z,94
2022-09-30T05:38:14.000Z,94
2022-09-30T05:39:40.000Z,95
2022-09-30T05:41:46.000Z,95
2022-09-30T05:43:13.000Z,95
2022-09-30T05:45:19.000Z,95
2022-09-30T05:46:45.000Z,95
2022-09-30T05:48:52.000Z,95
2022-09-30T05:50:18.000Z,95
2022-09-30T05:52:24.000Z,95
2022-09-30T05:55:15.000Z,95
2022-09-30T05:56:42.000Z,95
2022-09-30T05:58:48.000Z,95
2022-09-30T06:00:15.000Z,95
2022-09-30T06:02:21.000Z,95
2022-09-30T06:03:48.000Z,94
2022-09-30T06:05:54.000Z,94
2022-09-30T06:07:20.000Z,95
2022-09-30T06:09:26.000Z,94
2022-09-30T06:10:53.000Z,94
2022-09-30T06:12:59.000Z,94
2022-09-30T06:14:26.000Z,94
2022-09-30T06:16:32.000Z,94
2022-09-30T06:17:58.000Z,94
2022-09-30T06:20:04.000Z,94
2022-09-30T06:21:31.000Z,95
2022-09-30T06:23:37.000Z,95
2022-09-30T06:25:04.000Z,95
2022-09-30T06:27:10.000Z,95
2022-09-30T06:28:36.000Z,95
2022-09-30T06:30:42.000Z,95
2022-09-30T06:33:33.000Z,95
2022-09-30T06:35:00.000Z,95
2022-09-30T06:37:06.000Z,95
2022-09-30T06:38:33.000Z,94
2022-09-30T06:40:39.000Z,94
2022-09-30T06:42:05.000Z,95
2022-09-30T06:44:11.000Z,94
2022-09-30T06:45:38.000Z,94
2022-09-30T06:47:44.000Z,94
2022-09-30T06:49:25.000Z,94
2022-09-30T06:51:34.000Z,94
2022-09-30T06:53:00.000Z,95
2022-09-30T06:55:06.000Z,95
2022-09-30T06:56:33.000Z,96
2022-09-30T06:58:39.000Z,95
2022-09-30T07:00:05.000Z,95
2022-09-30T07:02:12.000Z,95
2022-09-30T07:03:38.000Z,95
2022-09-30T07:05:44.000Z,95
2022-09-30T07:07:11.000Z,95
2022-09-30T07:09:17.000Z,95
2022-09-30T07:12:08.000Z,94
2022-09-30T07:13:35.000Z,95
2022-09-30T07:15:41.000Z,95
2022-09-30T07:17:07.000Z,95
2022-09-30T07:19:13.000Z,95
2022-09-30T07:20:40.000Z,95
2022-09-30T07:22:46.000Z,95
2022-09-30T07:24:12.000Z,94
2022-09-30T07:26:18.000Z,94
2022-09-30T07:27:45.000Z,94
2022-09-30T07:29:51.000Z,95
2022-09-30T07:31:36.000Z,94
2022-09-30T07:33:42.000Z,95
2022-09-30T07:35:09.000Z,95
2022-09-30T07:37:15.000Z,94
2022-09-30T07:38:42.000Z,94
2022-09-30T07:40:48.000Z,94
2022-09-30T07:42:14.000Z,93
2022-09-30T07:44:27.000Z,93
2022-09-30T07:45:54.000Z,94
2022-09-30T07:48:00.000Z,94
2022-09-30T07:50:51.000Z,95
2022-09-30T07:52:17.000Z,94
2022-09-30T07:54:24.000Z,94
2022-09-30T07:55:50.000Z,93
2022-09-30T07:57:56.000Z,93
2022-09-30T07:59:23.000Z,94
2022-09-30T08:01:29.000Z,93
2022-09-30T08:02:56.000Z,93
2022-09-30T08:05:02.000Z,93
2022-09-30T08:06:28.000Z,92
2022-09-30T08:08:34.000Z,93
2022-09-30T08:10:01.000Z,93
2022-09-30T08:12:07.000Z,93
2022-09-30T08:13:34.000Z,94
2022-09-30T08:15:40.000Z,93
2022-09-30T08:17:06.000Z,94
2022-09-30T08:19:12.000Z,93
2022-09-30T08:20:39.000Z,93
2022-09-30T08:22:45.000Z,94
2022-09-30T08:24:11.000Z,93
2022-09-30T08:26:18.000Z,94
2022-09-30T08:29:09.000Z,94
2022-09-30T08:30:35.000Z,95
2022-09-30T08:32:41.000Z,94
2022-09-30T08:34:08.000Z,94
2022-09-30T08:36:14.000Z,94
2022-09-30T08:37:40.000Z,94
2022-09-30T08:39:47.000Z,93
2022-09-30T08:41:13.000Z,93
2022-09-30T08:43:19.000Z,94
2022-09-30T08:44:46.000Z,92
2022-09-30T08:46:52.000Z,92
2022-09-30T08:48:24.000Z,92
2022-09-30T08:50:30.000Z,93
2022-09-30T08:51:57.000Z,93
2022-09-30T08:54:03.000Z,92
2022-09-30T08:55:29.000Z,93
2022-09-30T08:57:35.000Z,93
2022-09-30T08:59:02.000Z,93
2022-09-30T09:01:08.000Z,92
2022-09-30T09:02:35.000Z,93
2022-09-30T09:04:41.000Z,92
2022-09-30T09:07:32.000Z,92
2022-09-30T09:08:59.000Z,93
2022-09-30T09:11:05.000Z,93
2022-09-30T09:12:31.000Z,94
2022-09-30T09:14:37.000Z,93
2022-09-30T09:16:04.000Z,94
2022-09-30T09:18:10.000Z,93
2022-09-30T09:19:50.000Z,94
2022-09-30T09:21:56.000Z,93
2022-09-30T09:23:22.000Z,93
2022-09-30T09:25:28.000Z,93
2022-09-30T09:26:55.000Z,93
2022-09-30T09:29:01.000Z,94
2022-09-30T09:30:28.000Z,93
2022-09-30T09:32:34.000Z,93
2022-09-30T09:34:00.000Z,93
2022-09-30T09:36:06.000Z,94
2022-09-30T09:37:33.000Z,93
2022-09-30T09:39:39.000Z,94
2022-09-30T09:41:06.000Z,94
2022-09-30T09:43:12.000Z,95
2022-09-30T09:46:03.000Z,95
2022-09-30T09:47:30.000Z,95
2022-09-30T09:49:36.000Z,96
2022-09-30T09:51:02.000Z,96
2022-09-30T09:53:08.000Z,95
2022-09-30T09:54:35.000Z,95
2022-09-30T09:56:41.000Z,95
2022-09-30T09:58:08.000Z,96
2022-09-30T10:00:14.000Z,95
2022-09-30T10:01:40.000Z,95
2022-09-30T10:03:47.000Z,95
2022-09-30T10:05:13.000Z,94
2022-09-30T10:07:19.000Z,95
2022-09-30T10:08:46.000Z,94
2022-09-30T10:10:52.000Z,94
2022-09-30T10:12:18.000Z,95
2022-09-30T10:14:24.000Z,94
2022-09-30T10:15:51.000Z,94
2022-09-30T10:17:57.000Z,94
2022-09-30T10:19:24.000Z,94
2022-09-30T10:21:30.000Z,94
2022-09-30T10:24:21.000Z,92
2022-09-30T10:25:47.000Z,92
2022-09-30T10:27:54.000Z,92
2022-09-30T10:29:20.000Z,91
2022-09-30T10:31:26.000Z,91
2022-09-30T10:32:53.000Z,90
2022-09-30T10:34:59.000Z,89
2022-09-30T10:36:26.000Z,90
2022-09-30T10:38:32.000Z,89
2022-09-30T10:39:58.000Z,89
2022-09-30T10:42:05.000Z,86
2022-09-30T10:43:31.000Z,88
2022-09-30T10:45:37.000Z,87
2022-09-30T10:47:04.000Z,83
2022-09-30T10:49:10.000Z,84
2022-09-30T10:50:37.000Z,84
2022-09-30T10:52:43.000Z,83
2022-09-30T10:54:09.000Z,82
2022-09-30T10:56:15.000Z,83
2022-09-30T10:57:42.000Z,81
2022-09-30T10:59:48.000Z,80
2022-09-30T11:02:39.000Z,81
2022-09-30T11:04:06.000Z,79
2022-09-30T11:06:12.000Z,80
2022-09-30T11:07:39.000Z,80
2022-09-30T11:09:45.000Z,80
2022-09-30T11:11:11.000Z,79
2022-09-30T11:13:18.000Z,78
2022-09-30T11:14:44.000Z,79
2022-09-30T11:16:50.000Z,78
2022-09-30T11:18:17.000Z,79
2022-09-30T11:20:23.000Z,78
2022-09-30T11:21:50.000Z,80
2022-09-30T11:23:56.000Z,79
2022-09-30T11:25:22.000Z,79
2022-09-30T11:27:28.000Z,80
2022-09-30T11:28:55.000Z,80
2022-09-30T11:31:01.000Z,81
2022-09-30T11:32:33.000Z,80
2022-09-30T11:34:39.000Z,81
2022-09-30T11:36:06.000Z,80
2022-09-30T11:38:12.000Z,79
2022-09-30T11:41:03.000Z,80
2022-09-30T11:42:29.000Z,80
2022-09-30T11:44:36.000Z,80
2022-09-30T11:46:02.000Z,79
2022-09-30T11:48:08.000Z,79
2022-09-30T11:49:35.000Z,80
2022-09-30T11:51:41.000Z,79
2022-09-30T11:53:08.000Z,79
2022-09-30T11:55:14.000Z,78
2022-09-30T11:56:42.000Z,78
2022-09-30T11:58:48.000Z,80
2022-09-30T12:00:14.000Z,80
2022-09-30T12:02:20.000Z,77
2022-09-30T12:03:47.000Z,79
2022-09-30T12:05:53.000Z,79
2022-09-30T12:07:20.000Z,78
2022-09-30T12:09:26.000Z,77
2022-09-30T12:10:52.000Z,79
2022-09-30T12:12:58.000Z,79
2022-09-30T12:14:25.000Z,79
2022-09-30T12:16:31.000Z,78
2022-09-30T12:19:23.000Z,80
2022-09-30T12:20:52.000Z,77
2022-09-30T12:22:58.000Z,75
2022-09-30T12:24:24.000Z,79
2022-09-30T12:26:30.000Z,80
2022-09-30T12:27:58.000Z,81
2022-09-30T12:30:04.000Z,80
2022-09-30T12:31:30.000Z,79
2022-09-30T12:33:36.000Z,79
2022-09-30T12:35:03.000Z,80
2022-09-30T12:37:09.000Z,80
2022-09-30T12:38:36.000Z,79
2022-09-30T12:40:42.000Z,76
2022-09-30T12:42:08.000Z,74
2022-09-30T12:44:14.000Z,73
2022-09-30T12:45:41.000Z,72
2022-09-30T12:47:47.000Z,74
2022-09-30T12:49:14.000Z,72
2022-09-30T12:51:20.000Z,71
2022-09-30T12:52:46.000Z,70
2022-09-30T12:54:52.000Z,70
2022-09-30T12:57:43.000Z,72
2022-09-30T12:59:10.000Z,73
2022-09-30T13:01:16.000Z,68
2022-09-30T13:02:43.000Z,70
2022-09-30T13:04:49.000Z,69
2022-09-30T13:06:16.000Z,69
2022-09-30T13:08:22.000Z,69
2022-09-30T13:09:51.000Z,69
2022-09-30T13:11:58.000Z,70
2022-09-30T13:13:24.000Z,70
2022-09-30T13:15:30.000Z,69
2022-09-30T13:16:57.000Z,74
2022-09-30T13:19:03.000Z,69
2022-09-30T13:20:29.000Z,70
2022-09-30T13:22:35.000Z,67
2022-09-30T13:24:02.000Z,67
2022-09-30T13:26:08.000Z,67
2022-09-30T13:27:35.000Z,69
2022-09-30T13:29:41.000Z,63
2022-09-30T13:31:07.000Z,66
2022-09-30T13:33:13.000Z,60
2022-09-30T13:36:05.000Z,56
2022-09-30T13:37:31.000Z,57
2022-09-30T13:39:38.000Z,58
2022-09-30T13:41:04.000Z,57
2022-09-30T13:43:10.000Z,56
2022-09-30T13:44:37.000Z,55
2022-09-30T13:46:43.000Z,56
2022-09-30T13:48:09.000Z,55
2022-09-30T13:50:15.000Z,59
2022-09-30T13:51:42.000Z,57
2022-09-30T13:53:48.000Z,58
2022-09-30T13:55:15.000Z,59
2022-09-30T13:57:21.000Z,57
2022-09-30T13:58:47.000Z,56
2022-09-30T14:00:53.000Z,53
2022-09-30T14:02:20.000Z,52
2022-09-30T14:04:28.000Z,55
2022-09-30T14:05:54.000Z,56
2022-09-30T14:08:01.000Z,57
2022-09-30T14:09:27.000Z,56
2022-09-30T14:11:33.000Z,56
2022-09-30T14:14:24.000Z,56
2022-09-30T14:15:51.000Z,57
2022-09-30T14:17:57.000Z,57
2022-09-30T14:19:24.000Z,58
2022-09-30T14:21:30.000Z,55
2022-09-30T14:22:56.000Z,57
2022-09-30T14:25:02.000Z,56
2022-09-30T14:26:29.000Z,57
2022-09-30T14:28:35.000Z,57
2022-09-30T14:30:02.000Z,54
2022-09-30T14:32:08.000Z,57
2022-09-30T14:33:34.000Z,55
2022-09-30T14:35:41.000Z,57
2022-09-30T14:37:07.000Z,57
2022-09-30T14:39:13.000Z,58
2022-09-30T14:40:40.000Z,60
2022-09-30T14:42:46.000Z,59
2022-09-30T14:44:12.000Z,57
2022-09-30T14:46:19.000Z,56
2022-09-30T14:47:45.000Z,58
2022-09-30T14:49:51.000Z,58
2022-09-30T14:52:43.000Z,57
2022-09-30T14:54:09.000Z,55
2022-09-30T14:56:15.000Z,55
2022-09-30T14:57:42.000Z,58
2022-09-30T14:59:48.000Z,57
2022-09-30T15:01:14.000Z,55
2022-09-30T15:03:20.000Z,55
2022-09-30T15:04:47.000Z,54
2022-09-30T15:06:53.000Z,56
2022-09-30T15:08:20.000Z,57
2022-09-30T15:10:26.000Z,57
2022-09-30T15:11:52.000Z,58
2022-09-30T15:13:59.000Z,56
2022-09-30T15:15:25.000Z,58
2022-09-30T15:17:31.000Z,58
2022-09-30T15:18:58.000Z,56
2022-09-30T15:21:04.000Z,57
2022-09-30T15:22:30.000Z,58
2022-09-30T15:24:36.000Z,58
2022-09-30T15:26:03.000Z,58
2022-09-30T15:28:09.000Z,58
2022-09-30T15:31:00.000Z,56
2022-09-30T15:32:27.000Z,59
2022-09-30T15:34:33.000Z,59
2022-09-30T15:35:59.000Z,61
2022-09-30T15:38:06.000Z,59
2022-09-30T15:39:32.000Z,61
2022-09-30T15:41:38.000Z,60
2022-09-30T15:43:05.000Z,59
2022-09-30T15:45:11.000Z,59
2022-09-30T15:46:37.000Z,58
2022-09-30T15:48:44.000Z,58
2022-09-30T15:50:11.000Z,56
2022-09-30T15:52:17.000Z,59
2022-09-30T15:53:43.000Z,60
2022-09-30T15:55:50.000Z,60
2022-09-30T15:57:16.000Z,61
2022-09-30T15:59:22.000Z,62
2022-09-30T16:00:49.000Z,60
2022-09-30T16:02:55.000Z,60
2022-09-30T16:04:21.000Z,62
2022-09-30T16:06:28.000Z,63
2022-09-30T16:09:19.000Z,62
2022-09-30T16:10:45.000Z,63
2022-09-30T16:14:19.000Z,65
2022-09-30T16:16:25.000Z,67
2022-09-30T16:17:52.000Z,68
2022-09-30T16:19:58.000Z,68
2022-09-30T16:21:24.000Z,70
2022-09-30T16:23:30.000Z,71
2022-09-30T16:24:57.000Z,71
2022-09-30T16:27:03.000Z,72
2022-09-30T16:28:30.000Z,72
2022-09-30T16:30:36.000Z,73
2022-09-30T16:32:02.000Z,73
2022-09-30T16:34:08.000Z,74
2022-09-30T16:35:35.000Z,74
2022-09-30T16:37:41.000Z,74
2022-09-30T16:39:08.000Z,74
2022-09-30T16:41:14.000Z,74
2022-09-30T16:42:40.000Z,75
2022-09-30T16:44:46.000Z,77
2022-09-30T16:47:38.000Z,78
2022-09-30T16:49:04.000Z,79
2022-09-30T16:51:10.000Z,79
2022-09-30T16:52:37.000Z,79
2022-09-30T16:54:43.000Z,79
2022-09-30T16:56:10.000Z,79
2022-09-30T16:58:16.000Z,79
2022-09-30T16:59:42.000Z,80
2022-09-30T17:01:48.000Z,80
2022-09-30T17:03:15.000Z,80
2022-09-30T17:05:21.000Z,80
2022-09-30T17:06:48.000Z,81
2022-09-30T17:08:54.000Z,81
2022-09-30T17:10:20.000Z,81
2022-09-30T17:12:26.000Z,81
2022-09-30T17:13:53.000Z,81
2022-09-30T17:15:59.000Z,82
2022-09-30T17:17:26.000Z,82
2022-09-30T17:19:32.000Z,82
2022-09-30T17:20:58.000Z,82
2022-09-30T17:23:04.000Z,82
2022-09-30T17:25:58.000Z,83
2022-09-30T17:27:25.000Z,83
2022-09-30T17:29:31.000Z,83
2022-09-30T17:30:59.000Z,83
2022-09-30T17:33:05.000Z,84
2022-09-30T17:34:32.000Z,84
2022-09-30T17:36:38.000Z,85
2022-09-30T17:38:04.000Z,85
2022-09-30T17:40:10.000Z,85
2022-09-30T17:41:37.000Z,85
2022-09-30T17:43:43.000Z,85
2022-09-30T17:45:09.000Z,85
2022-09-30T17:47:15.000Z,85
2022-09-30T17:48:42.000Z,85
2022-09-30T17:50:48.000Z,85
2022-09-30T17:52:15.000Z,85
2022-09-30T17:54:21.000Z,86
2022-09-30T17:55:47.000Z,85
2022-09-30T17:57:54.000Z,85
2022-09-30T17:59:20.000Z,85
2022-09-30T18:01:26.000Z,86
2022-09-30T18:04:17.000Z,86
2022-09-30T18:05:44.000Z,87
2022-09-30T18:07:50.000Z,87
2022-09-30T18:09:17.000Z,87
2022-09-30T18:11:23.000Z,87
2022-09-30T18:12:49.000Z,87
2022-09-30T18:14:55.000Z,87
2022-09-30T18:16:22.000Z,87
2022-09-30T18:18:28.000Z,87
2022-09-30T18:19:54.000Z,87
2022-09-30T18:22:01.000Z,87
2022-09-30T18:23:27.000Z,87
2022-09-30T18:25:33.000Z,87
2022-09-30T18:27:00.000Z,87
2022-09-30T18:29:06.000Z,88
2022-09-30T18:30:32.000Z,88
2022-09-30T18:32:38.000Z,88
2022-09-30T18:34:05.000Z,88
2022-09-30T18:36:11.000Z,88
2022-09-30T18:37:38.000Z,88
2022-09-30T18:39:44.000Z,88
2022-09-30T18:42:35.000Z,88
2022-09-30T18:44:02.000Z,88
2022-09-30T18:46:08.000Z,88
2022-09-30T18:47:35.000Z,88
2022-09-30T18:49:41.000Z,88
2022-09-30T18:51:08.000Z,88
2022-09-30T18:53:14.000Z,89
2022-09-30T18:54:40.000Z,89
2022-09-30T18:56:46.000Z,89
2022-09-30T18:58:13.000Z,90
2022-09-30T19:00:19.000Z,89
2022-09-30T19:01:46.000Z,89
2022-09-30T19:03:52.000Z,90
2022-09-30T19:05:18.000Z,90
2022-09-30T19:07:25.000Z,90
2022-09-30T19:08:51.000Z,89
2022-09-30T19:10:57.000Z,90
2022-09-30T19:12:24.000Z,90
2022-09-30T19:14:30.000Z,90
2022-09-30T19:15:56.000Z,89
2022-09-30T19:18:02.000Z,90
2022-09-30T19:20:54.000Z,89
2022-09-30T19:22:20.000Z,89
2022-09-30T19:24:26.000Z,89
2022-09-30T19:25:54.000Z,89
2022-09-30T19:28:00.000Z,89
2022-09-30T19:29:26.000Z,89
2022-09-30T19:31:32.000Z,88
2022-09-30T19:33:00.000Z,88
2022-09-30T19:35:06.000Z,88
2022-09-30T19:36:33.000Z,87
2022-09-30T19:38:55.000Z,88
2022-09-30T19:40:37.000Z,89
2022-09-30T19:42:43.000Z,90
2022-09-30T19:44:10.000Z,90
2022-09-30T19:46:16.000Z,90
2022-09-30T19:47:43.000Z,89
2022-09-30T19:49:49.000Z,89
2022-09-30T19:51:15.000Z,89
2022-09-30T19:53:22.000Z,89
2022-09-30T19:54:57.000Z,90
2022-09-30T19:57:11.000Z,90
2022-09-30T20:00:02.000Z,90
2022-09-30T20:01:31.000Z,90
2022-09-30T20:03:38.000Z,90
2022-09-30T20:05:05.000Z,89
2022-09-30T20:07:11.000Z,90
2022-09-30T20:08:37.000Z,90
2022-09-30T20:10:43.000Z,90
2022-09-30T20:12:10.000Z,89
2022-09-30T20:14:16.000Z,89
2022-09-30T20:15:42.000Z,89
2022-09-30T20:17:52.000Z,88
2022-09-30T20:19:18.000Z,88
2022-09-30T20:21:25.000Z,88
2022-09-30T20:22:51.000Z,88
2022-09-30T20:24:57.000Z,88
2022-09-30T20:26:24.000Z,90
2022-09-30T20:28:30.000Z,91
2022-09-30T20:29:57.000Z,90
2022-09-30T20:32:03.000Z,90
2022-09-30T20:33:29.000Z,90
2022-09-30T20:35:35.000Z,89
2022-09-30T20:38:26.000Z,89
2022-09-30T20:39:53.000Z,89
2022-09-30T20:41:59.000Z,89
2022-09-30T20:43:25.000Z,90
2022-09-30T20:45:31.000Z,90
2022-09-30T20:46:58.000Z,90
2022-09-30T20:49:04.000Z,91
2022-09-30T20:50:31.000Z,91
2022-09-30T20:52:37.000Z,91
2022-09-30T20:54:03.000Z,91
2022-09-30T20:56:10.000Z,91
2022-09-30T20:57:36.000Z,91
2022-09-30T20:59:42.000Z,91
2022-09-30T21:01:09.000Z,91
2022-09-30T21:03:15.000Z,91
2022-09-30T21:04:41.000Z,92
2022-09-30T21:06:48.000Z,92
2022-09-30T21:08:14.000Z,92
2022-09-30T21:10:20.000Z,92
2022-09-30T21:11:47.000Z,92
2022-09-30T21:13:53.000Z,92
2022-09-30T21:16:44.000Z,91
2022-09-30T21:18:11.000Z,91
2022-09-30T21:20:17.000Z,92
2022-09-30T21:21:43.000Z,92
2022-09-30T21:23:49.000Z,92
2022-09-30T21:25:16.000Z,92
2022-09-30T21:27:22.000Z,92
2022-09-30T21:28:48.000Z,92
2022-09-30T21:30:55.000Z,92
2022-09-30T21:32:22.000Z,92
2022-09-30T21:34:28.000Z,93
2022-09-30T21:35:54.000Z,93
2022-09-30T21:38:00.000Z,92
2022-09-30T21:39:27.000Z,92
2022-09-30T21:41:33.000Z,91
2022-09-30T21:43:00.000Z,92
2022-09-30T21:45:06.000Z,91
2022-09-30T21:46:33.000Z,92
2022-09-30T21:48:39.000Z,92
2022-09-30T21:50:05.000Z,92
2022-09-30T21:52:11.000Z,93
2022-09-30T21:55:03.000Z,93
2022-09-30T21:56:29.000Z,92
2022-09-30T21:58:35.000Z,92
2022-09-30T22:00:02.000Z,92
2022-09-30T22:02:08.000Z,92
2022-09-30T22:03:35.000Z,93
2022-09-30T22:05:41.000Z,92
2022-09-30T22:07:07.000Z,92
2022-09-30T22:09:13.000Z,91
2022-09-30T22:10:40.000Z,91
2022-09-30T22:12:46.000Z,91
2022-09-30T22:14:12.000Z,91
2022-09-30T22:16:19.000Z,91
2022-09-30T22:17:45.000Z,91
2022-09-30T22:19:51.000Z,91
2022-09-30T22:21:18.000Z,91
2022-09-30T22:23:24.000Z,92
2022-09-30T22:24:51.000Z,92
2022-09-30T22:26:57.000Z,92
2022-09-30T22:28:23.000Z,92
2022-09-30T22:30:29.000Z,92
2022-09-30T22:33:20.000Z,92
2022-09-30T22:34:47.000Z,93
2022-09-30T22:36:53.000Z,93
2022-09-30T22:38:19.000Z,93
2022-09-30T22:40:25.000Z,93
2022-09-30T22:41:52.000Z,92
2022-09-30T22:43:58.000Z,92
2022-09-30T22:45:24.000Z,93
2022-09-30T22:47:31.000Z,93
2022-09-30T22:48:57.000Z,92
2022-09-30T22:51:03.000Z,92
2022-09-30T22:52:30.000Z,91
2022-09-30T22:54:36.000Z,92
2022-09-30T22:56:02.000Z,91
2022-09-30T22:58:09.000Z,92
2022-09-30T22:59:35.000Z,92
2022-09-30T23:01:41.000Z,92
2022-09-30T23:03:08.000Z,93
2022-09-30T23:05:14.000Z,92
2022-09-30T23:06:40.000Z,93
2022-09-30T23:08:46.000Z,93
2022-09-30T23:11:37.000Z,93
2022-09-30T23:13:04.000Z,93
2022-09-30T23:15:10.000Z,93
2022-09-30T23:16:36.000Z,92
2022-09-30T23:18:43.000Z,92
2022-09-30T23:20:09.000Z,92
2022-09-30T23:22:15.000Z,92
2022-09-30T23:23:42.000Z,92
2022-09-30T23:25:48.000Z,92
2022-09-30T23:27:14.000Z,92
2022-09-30T23:29:20.000Z,92
2022-09-30T23:30:47.000Z,92
2022-09-30T23:32:53.000Z,93
2022-09-30T23:34:20.000Z,92
2022-09-30T23:36:26.000Z,92
2022-09-30T23:37:52.000Z,92
2022-09-30T23:39:58.000Z,92
2022-09-30T23:41:25.000Z,92
2022-09-30T23:43:31.000Z,92
2022-09-30T23:44:58.000Z,92
2022-09-30T23:47:04.000Z,93
2022-09-30T23:49:55.000Z,92
2022-09-30T23:51:21.000Z,92
2022-09-30T23:53:27.000Z,93
2022-09-30T23:54:54.000Z,93
2022-09-30T23:57:00.000Z,93
2022-09-30T23:58:27.000Z,92
